createdAt,value
2024-05-09T00:03:52.831Z,101226.00
2024-05-09T00:08:55.763Z,101219.97
2024-05-09T00:13:58.744Z,101220.09
2024-05-09T00:19:04.470Z,101220.16
2024-05-09T00:24:07.911Z,101221.09
2024-05-09T00:29:11.050Z,101222.06
2024-05-09T00:34:16.718Z,101230.84
2024-05-09T00:39:19.682Z,101227.41
2024-05-09T00:44:22.810Z,101224.88
2024-05-09T00:49:29.798Z,101217.09
2024-05-09T00:54:33.927Z,101218.84
2024-05-09T00:59:37.514Z,101217.16
2024-05-09T01:04:43.273Z,101215.44
2024-05-09T01:09:46.317Z,101218.91
2024-05-09T01:14:49.463Z,101225.00
2024-05-09T01:19:54.994Z,101221.53
2024-05-09T01:25:00.556Z,101231.09
2024-05-09T01:30:08.986Z,101225.88
2024-05-09T01:35:12.381Z,101227.63
2024-05-09T01:40:22.141Z,101236.31
2024-05-09T01:45:28.161Z,101238.03
2024-05-09T01:55:39.646Z,101242.38
2024-05-09T02:00:43.576Z,101238.03
2024-05-09T02:05:47.777Z,101242.34
2024-05-09T02:10:53.919Z,101238.00
2024-05-09T02:15:56.970Z,101250.09
2024-05-09T02:21:00.080Z,101248.34
2024-05-09T02:26:05.746Z,101261.28
2024-05-09T02:31:08.718Z,101262.13
2024-05-09T02:36:12.667Z,101256.91
2024-05-09T02:41:18.237Z,101262.88
2024-05-09T02:46:21.206Z,101254.19
2024-05-09T02:51:24.263Z,101256.75
2024-05-09T02:56:29.859Z,101257.56
2024-05-09T03:01:32.935Z,101258.41
2024-05-09T03:06:36.064Z,101260.97
2024-05-09T03:11:41.648Z,101268.72
2024-05-09T03:16:44.776Z,101265.22
2024-05-09T03:21:47.787Z,101257.44
2024-05-09T03:26:53.299Z,101261.66
2024-05-09T03:31:56.316Z,101272.88
2024-05-09T03:36:59.355Z,101272.03
2024-05-09T03:42:04.889Z,101262.47
2024-05-09T03:47:07.830Z,101269.38
2024-05-09T03:52:10.965Z,101270.25
2024-05-09T03:57:16.489Z,101270.25
2024-05-09T04:02:19.505Z,101271.97
2024-05-09T04:07:22.530Z,101271.97
2024-05-09T04:12:28.193Z,101278.94
2024-05-09T04:17:31.633Z,101279.81
2024-05-09T04:22:34.646Z,101284.19
2024-05-09T04:27:40.198Z,101284.22
2024-05-09T04:32:43.858Z,101287.72
2024-05-09T04:37:47.048Z,101293.78
2024-05-09T04:42:52.794Z,101286.94
2024-05-09T04:47:57.509Z,101291.31
2024-05-09T04:53:00.837Z,101296.53
2024-05-09T04:58:06.572Z,101299.19
2024-05-09T05:03:13.221Z,101299.25
2024-05-09T05:08:19.799Z,101313.19
2024-05-09T05:13:25.725Z,101297.66
2024-05-09T05:18:30.041Z,101302.03
2024-05-09T05:23:33.156Z,101298.59
2024-05-09T05:28:39.800Z,101296.06
2024-05-09T05:33:42.911Z,101291.78
2024-05-09T05:38:46.031Z,101294.38
2024-05-09T05:43:51.853Z,101297.84
2024-05-09T05:48:55.170Z,101297.88
2024-05-09T05:53:58.161Z,101308.28
2024-05-09T05:59:03.809Z,101301.34
2024-05-09T06:04:06.933Z,101305.69
2024-05-09T06:09:10.045Z,101310.00
2024-05-09T06:14:33.816Z,101303.91
2024-05-09T06:19:39.755Z,101305.59
2024-05-09T06:24:42.731Z,101305.44
2024-05-09T06:29:59.782Z,101314.03
2024-05-09T06:35:02.850Z,101308.69
2024-05-09T06:40:09.738Z,101310.97
2024-05-09T06:45:15.853Z,101305.56
2024-05-09T06:50:23.959Z,101310.69
2024-05-09T06:55:30.820Z,101293.34
2024-05-09T07:00:39.798Z,101294.59
2024-05-09T07:05:45.066Z,101286.81
2024-05-09T07:10:50.022Z,101285.75
2024-05-09T07:15:55.774Z,101287.22
2024-05-09T07:20:59.902Z,101282.22
2024-05-09T07:26:02.883Z,101276.50
2024-05-09T07:31:10.922Z,101279.13
2024-05-09T07:36:13.998Z,101282.38
2024-05-09T07:41:17.482Z,101275.16
2024-05-09T07:47:17.273Z,101271.63
2024-05-09T07:53:14.454Z,101267.91
2024-05-09T07:57:09.292Z,101260.72
2024-05-09T08:02:15.035Z,101253.19
2024-05-09T08:07:19.098Z,101259.28
2024-05-09T08:12:22.253Z,101250.28
2024-05-09T08:17:29.131Z,101243.88
2024-05-09T08:22:32.761Z,101245.03
2024-05-09T08:27:37.002Z,101241.09
2024-05-09T08:32:43.135Z,101244.81
2024-05-09T08:37:49.991Z,101239.09
2024-05-09T08:42:56.128Z,101249.63
2024-05-09T08:48:05.966Z,101231.16
2024-05-09T08:53:10.059Z,101230.53
2024-05-09T08:58:16.319Z,101223.00
2024-05-09T09:03:28.227Z,101222.16
2024-05-09T09:08:31.592Z,101224.16
2024-05-09T09:13:34.766Z,101210.13
2024-05-09T09:18:40.536Z,101218.06
2024-05-09T09:23:43.687Z,101214.56
2024-05-09T09:28:47.477Z,101210.75
2024-05-09T09:33:53.665Z,101215.72
2024-05-09T09:38:59.425Z,101210.41
2024-05-09T09:44:04.189Z,101217.50
2024-05-09T09:49:10.515Z,101213.13
2024-05-09T09:54:15.527Z,101206.53
2024-05-09T09:59:19.666Z,101205.31
2024-05-09T10:04:25.699Z,101204.81
2024-05-09T10:09:29.609Z,101201.91
2024-05-09T10:14:34.650Z,101196.91
2024-05-09T10:19:40.328Z,101197.88
2024-05-09T10:24:51.119Z,101195.41
2024-05-09T10:29:55.407Z,101192.66
2024-05-09T10:35:11.722Z,101198.69
2024-05-09T10:40:26.001Z,101191.16
2024-05-09T10:45:32.754Z,101184.75
2024-05-09T10:50:43.747Z,101180.81
2024-05-09T10:55:46.839Z,101190.63
2024-05-09T11:00:49.922Z,101175.88
2024-05-09T11:05:56.310Z,101166.97
2024-05-09T11:10:59.973Z,101168.50
2024-05-09T11:16:04.160Z,101165.91
2024-05-09T11:21:15.327Z,101158.09
2024-05-09T11:26:19.650Z,101158.38
2024-05-09T11:31:22.949Z,101154.28
2024-05-09T11:36:28.884Z,101148.31
2024-05-09T11:41:35.951Z,101137.69
2024-05-09T11:46:42.518Z,101133.06
2024-05-09T11:51:48.138Z,101141.75
2024-05-09T11:56:51.685Z,101131.97
2024-05-09T12:01:54.778Z,101126.44
2024-05-09T12:07:00.585Z,101117.56
2024-05-09T12:12:03.818Z,101110.25
2024-05-09T12:17:07.242Z,101108.25
2024-05-09T12:22:12.985Z,101098.69
2024-05-09T12:27:16.085Z,101100.72
2024-05-09T12:32:19.196Z,101106.84
2024-05-09T12:37:25.006Z,101099.13
2024-05-09T12:42:29.472Z,101087.25
2024-05-09T12:47:34.356Z,101088.06
2024-05-09T12:52:40.047Z,101080.44
2024-05-09T12:57:43.205Z,101068.78
2024-05-09T13:02:46.305Z,101051.34
2024-05-09T13:07:52.063Z,101051.84
2024-05-09T13:12:55.185Z,101037.53
2024-05-09T13:18:01.646Z,101039.13
2024-05-09T13:23:10.166Z,101034.25
2024-05-09T13:28:13.299Z,101033.59
2024-05-09T13:33:16.653Z,101034.31
2024-05-09T13:38:23.160Z,101031.66
2024-05-09T13:43:26.258Z,101019.53
2024-05-09T13:48:29.635Z,101021.09
2024-05-09T13:53:35.391Z,101010.53
2024-05-09T13:58:38.553Z,101008.69
2024-05-09T14:03:41.951Z,101002.19
2024-05-09T14:08:47.674Z,100987.47
2024-05-09T14:13:50.733Z,100992.38
2024-05-09T14:18:53.788Z,100994.34
2024-05-09T14:24:01.199Z,100982.97
2024-05-09T14:29:04.310Z,100975.19
2024-05-09T14:34:07.450Z,100983.19
2024-05-09T14:39:13.125Z,100969.09
2024-05-09T14:44:16.094Z,100967.50
2024-05-09T14:49:19.348Z,100958.97
2024-05-09T14:54:25.053Z,100947.09
2024-05-09T14:59:28.275Z,100945.38
2024-05-09T15:04:31.508Z,100951.09
2024-05-09T15:09:39.036Z,100934.47
2024-05-09T15:14:42.357Z,100929.75
2024-05-09T15:19:47.891Z,100924.53
2024-05-09T15:24:54.420Z,100932.06
2024-05-09T15:29:57.465Z,100925.00
2024-05-09T15:35:00.520Z,100920.34
2024-05-09T15:40:12.122Z,100914.34
2024-05-09T15:45:18.190Z,100914.53
2024-05-09T15:50:28.843Z,100911.97
2024-05-09T15:55:42.256Z,100897.81
2024-05-09T16:00:47.858Z,100895.44
2024-05-09T16:05:55.048Z,100903.66
2024-05-09T16:11:01.018Z,100895.34
2024-05-09T16:16:04.560Z,100889.81
2024-05-09T16:21:08.466Z,100889.75
2024-05-09T16:26:14.113Z,100882.75
2024-05-09T16:31:17.398Z,100865.03
2024-05-09T16:36:20.473Z,100873.06
2024-05-09T16:41:26.172Z,100876.72
2024-05-09T16:46:29.302Z,100870.59
2024-05-09T16:51:32.429Z,100877.63
2024-05-09T16:56:38.252Z,100867.13
2024-05-09T17:01:41.274Z,100865.72
2024-05-09T17:06:44.396Z,100861.31
2024-05-09T17:11:50.088Z,100863.34
2024-05-09T17:16:53.486Z,100857.69
2024-05-09T17:21:56.492Z,100864.53
2024-05-09T17:27:02.654Z,100869.75
2024-05-09T17:32:06.077Z,100868.06
2024-05-09T17:37:09.186Z,100862.63
2024-05-09T17:42:14.838Z,100872.00
2024-05-09T17:47:18.084Z,100865.00
2024-05-09T17:52:21.686Z,100882.47
2024-05-09T17:57:29.220Z,100879.16
2024-05-09T18:02:33.585Z,100878.84
2024-05-09T18:07:36.622Z,100883.47
2024-05-09T18:12:42.448Z,100876.03
2024-05-09T18:17:45.762Z,100881.50
2024-05-09T18:22:48.899Z,100873.94
2024-05-09T18:27:54.607Z,100882.25
2024-05-09T18:32:57.788Z,100880.69
2024-05-09T18:38:00.823Z,100885.50
2024-05-09T18:43:08.808Z,100894.66
2024-05-09T18:48:12.683Z,100898.72
2024-05-09T18:53:20.985Z,100893.91
2024-05-09T18:58:26.898Z,100904.28
2024-05-09T19:03:30.389Z,100915.66
2024-05-09T19:08:33.851Z,100922.84
2024-05-09T19:13:39.630Z,100923.69
2024-05-09T19:18:42.867Z,100919.31
2024-05-09T19:23:50.923Z,100915.56
2024-05-09T19:28:58.164Z,100924.97
2024-05-09T19:34:01.364Z,100927.97
2024-05-09T19:39:04.465Z,100941.03
2024-05-09T19:44:11.459Z,100938.03
2024-05-09T19:49:14.603Z,100937.63
2024-05-09T19:54:17.653Z,100942.13
2024-05-09T19:59:23.270Z,100946.88
2024-05-09T20:04:26.473Z,100951.38
2024-05-09T20:09:29.655Z,100952.97
2024-05-09T20:14:35.285Z,100958.88
2024-05-09T20:19:38.419Z,100961.72
2024-05-09T20:24:41.540Z,100958.50
2024-05-09T20:29:47.439Z,100962.28
2024-05-09T20:34:51.772Z,100964.34
2024-05-09T20:39:54.742Z,100965.44
2024-05-09T20:45:00.373Z,100976.94
2024-05-09T20:50:05.177Z,100978.00
2024-05-09T20:55:10.886Z,100967.78
2024-05-09T21:00:19.284Z,100973.22
2024-05-09T21:05:28.835Z,100977.84
2024-05-09T21:10:33.542Z,100977.13
2024-05-09T21:15:40.056Z,100980.81
2024-05-09T21:20:43.132Z,100978.28
2024-05-09T21:25:46.114Z,100985.38
2024-05-09T21:30:51.730Z,100981.19
2024-05-09T21:35:54.709Z,100974.41
2024-05-09T21:40:57.889Z,100983.31
2024-05-09T21:46:03.562Z,100993.88
2024-05-09T21:51:06.610Z,100982.69
2024-05-09T21:56:10.779Z,100986.31
2024-05-09T22:01:16.510Z,100985.50
2024-05-09T22:06:19.595Z,100989.16
2024-05-09T22:11:22.627Z,100983.16
2024-05-09T22:16:28.240Z,100980.63
2024-05-09T22:21:31.330Z,100988.59
2024-05-09T22:26:34.233Z,100992.19
2024-05-09T22:31:39.886Z,100995.72
2024-05-09T22:36:42.853Z,100989.72
2024-05-09T22:41:45.889Z,100988.06
2024-05-09T22:46:51.491Z,100994.25
2024-05-09T22:51:54.604Z,100987.34
2024-05-09T22:56:57.615Z,100988.38
2024-05-09T23:02:03.379Z,100987.63
2024-05-09T23:07:06.736Z,100992.91
2024-05-09T23:12:10.329Z,100990.28
2024-05-09T23:17:16.069Z,100981.72
2024-05-09T23:22:19.307Z,100985.25
2024-05-09T23:27:22.310Z,100986.25
2024-05-09T23:32:27.926Z,100984.59
2024-05-09T23:37:30.892Z,100977.69
2024-05-09T23:42:33.907Z,100975.16
2024-05-09T23:47:39.518Z,100973.50
2024-05-09T23:52:42.508Z,100973.56
2024-05-09T23:57:45.649Z,100978.00
